Decoded Metar for EBFN (KOKSIJDE in BELGIUM) (IATA:N/A) | Meteo·Mobile Aviation Weather
aviador You're here:

EBFN Decoded Metar

KOKSIJDE in BELGIUM
Report Time2019-06-18 06:55:00
UTC Time2019-06-18 07:26:59
Flight Rules vfr VFR
WindVRB at 02 kt
Visibility9999 m
Phenomena:N/A
Clouds:Few 130 Hf
Broken 240 Hf
Expected CloudBase > 2,000 ft AGL from Temp-Dew spread
Ceiling24,000 ft
Temp17°C (ISA +2)
Dew Point12°C (73% RH)
AAT16.9°C
QNH1016 hPa
Density Alt358 ft
Elevation30 ft
Report Wrong Elevation
Raw Report
METAR EBFN 180655Z VRB02KT 9999 FEW130 BKN240 17/12 Q1016 BLU BLU=

Extra information for EBFN:More info

Metar Taf Metar & Taf Last 4 Metars F.Rules Stats Wind Profile Meteogram Temp Stats Airport Information Weather charts Add Link Nearby VenuesMetar ALERT Operation Metar Decoded Social comments